Time;durP1;ratioP1;P1;durP2;ratioP2;P2;SDS_P1;SDS_P2;PMS_P1;PMS_P2;Temp;Humidity;BMP_temperature;BMP_pressure;BME280_temperature;BME280_humidity;BME280_pressure;Samples;Min_cycle;Max_cycle;Signal;HPM_P1;HPM_P2
2021/01/13 00:02:08;;;;;;;60.93;31.30;;;;;;;1.50;88.92;98659.57;1645716;85;21422;-65
2021/01/13 00:04:34;;;;;;;56.95;29.30;;;;;;;1.60;89.09;98660.38;1644951;85;21230;-65
2021/01/13 00:07:00;;;;;;;59.65;30.23;;;;;;;1.52;88.69;98665.45;1645939;85;21210;-67
2021/01/13 00:09:26;;;;;;;57.40;30.68;;;;;;;1.53;88.99;98661.91;1645875;85;21217;-66
2021/01/13 00:11:57;;;;;;;57.87;29.90;;;;;;;1.56;89.04;98663.75;1645569;85;20932;-65
2021/01/13 00:14:26;;;;;;;56.20;30.97;;;;;;;1.57;89.02;98663.25;1645142;85;21716;-65
2021/01/13 00:16:52;;;;;;;51.68;28.47;;;;;;;1.56;88.99;98664.23;1647179;85;21194;-65
2021/01/13 00:19:20;;;;;;;57.88;28.92;;;;;;;1.56;89.21;98665.05;1646263;85;21230;-65
2021/01/13 00:21:51;;;;;;;62.20;29.60;;;;;;;1.54;89.35;98666.13;1645353;85;21648;-65
2021/01/13 00:24:18;;;;;;;56.40;29.07;;;;;;;1.60;89.13;98668.19;1644720;85;21170;-65
2021/01/13 00:26:44;;;;;;;56.83;28.93;;;;;;;1.59;89.08;98666.56;1645628;85;21241;-65
2021/01/13 00:29:11;;;;;;;54.67;28.85;;;;;;;1.60;89.01;98661.23;1646768;85;27747;-65
2021/01/13 00:31:37;;;;;;;;;;;;;;;1.65;88.94;98663.42;1648902;85;21226;-65
2021/01/13 00:34:06;;;;;;;55.10;28.27;;;;;;;1.55;89.32;98656.08;1646013;85;21205;-64
2021/01/13 00:36:31;;;;;;;54.67;27.58;;;;;;;1.53;89.43;98660.11;1645511;85;21234;-65
2021/01/13 00:38:57;;;;;;;59.10;29.47;;;;;;;1.50;89.49;98660.38;1645737;85;20975;-64
2021/01/13 00:41:23;;;;;;;52.50;27.32;;;;;;;1.52;89.68;98660.25;1646404;85;28802;-64
2021/01/13 00:43:49;;;;;;;57.57;29.47;;;;;;;1.58;89.59;98664.91;1645802;85;24345;-65
2021/01/13 00:46:15;;;;;;;57.65;30.50;;;;;;;1.38;90.35;98664.06;1645812;85;21662;-65
2021/01/13 00:48:41;;;;;;;58.47;29.47;;;;;;;1.40;90.59;98664.77;1645464;85;24737;-65
2021/01/13 00:51:07;;;;;;;55.73;29.07;;;;;;;1.40;90.75;98655.17;1641597;87;21040;-64
2021/01/13 00:53:33;;;;;;;52.97;28.03;;;;;;;1.41;91.00;98671.14;1641506;85;27857;-64
2021/01/13 00:55:58;;;;;;;59.17;28.20;;;;;;;1.47;90.82;98665.05;1639595;87;25262;-65
2021/01/13 00:58:24;;;;;;;53.47;27.57;;;;;;;1.52;90.41;98670.66;1639819;87;21319;-65
2021/01/13 01:00:50;;;;;;;53.70;28.67;;;;;;;1.58;90.47;98672.72;1641801;85;21012;-65
2021/01/13 01:03:18;;;;;;;60.75;30.75;;;;;;;1.62;90.33;98679.30;1641856;87;21231;-65
2021/01/13 01:05:44;;;;;;;54.33;27.60;;;;;;;1.53;91.32;98677.02;1640601;85;21267;-65
2021/01/13 01:08:10;;;;;;;49.80;26.33;;;;;;;1.43;91.10;98672.30;1639974;87;21198;-65
2021/01/13 01:10:36;;;;;;;56.42;30.40;;;;;;;1.50;91.13;98673.88;1636951;87;21234;-65
2021/01/13 01:13:02;;;;;;;57.27;29.73;;;;;;;1.45;91.31;98676.07;1639474;87;21754;-65
2021/01/13 01:15:30;;;;;;;53.10;28.93;;;;;;;1.31;91.91;98681.98;1640249;85;21040;-65
2021/01/13 01:17:56;;;;;;;53.33;28.47;;;;;;;1.38;91.86;98677.91;1640262;85;21232;-65
2021/01/13 01:20:22;;;;;;;56.33;30.68;;;;;;;1.42;92.09;98678.45;1641266;85;21218;-64
2021/01/13 01:22:56;;;;;;;55.60;28.67;;;;;;;1.44;92.10;98679.12;1640788;87;21101;-64
2021/01/13 01:25:22;;;;;;;46.50;25.43;;;;;;;1.55;91.92;98679.48;1639647;85;21245;-64
2021/01/13 01:27:53;;;;;;;55.35;30.95;;;;;;;1.41;91.89;98688.05;1638549;87;21210;-63
2021/01/13 01:30:21;;;;;;;44.48;24.18;;;;;;;1.11;93.07;98690.20;1639946;87;21184;-64
2021/01/13 01:32:46;;;;;;;53.85;28.38;;;;;;;1.03;93.79;98682.25;1639688;87;21231;-64
2021/01/13 01:35:16;;;;;;;52.63;28.57;;;;;;;0.92;94.63;98680.57;1639061;85;21129;-63
2021/01/13 01:37:42;;;;;;;57.25;29.65;;;;;;;0.89;95.16;98682.13;1615993;87;21243;-64
2021/01/13 01:40:13;;;;;;;55.08;30.00;;;;;;;1.00;95.25;98682.03;1640911;85;21266;-64
2021/01/13 01:42:52;;;;;;;55.43;30.55;;;;;;;0.90;95.75;98682.45;1640208;85;21262;-64
2021/01/13 01:45:22;;;;;;;54.42;28.55;;;;;;;0.79;96.29;98686.45;1641513;87;21226;-64
2021/01/13 01:48:14;;;;;;;52.45;28.60;;;;;;;0.68;97.02;98686.90;1641448;87;21560;-65
2021/01/13 01:50:43;;;;;;;56.30;29.67;;;;;;;0.72;97.03;98690.05;1644898;87;21654;-65
2021/01/13 01:53:18;;;;;;;52.67;28.45;;;;;;;0.72;97.83;98690.05;1646915;87;21217;-64
2021/01/13 01:56:08;;;;;;;57.10;29.12;;;;;;;0.61;98.21;98692.25;1646250;87;21230;-64
2021/01/13 01:58:34;;;;;;;50.23;26.62;;;;;;;0.64;98.48;98699.79;1646696;85;21588;-65
2021/01/13 02:01:01;;;;;;;47.80;26.83;;;;;;;0.57;99.24;98693.45;1646248;86;21784;-65
2021/01/13 02:03:31;;;;;;;;;;;;;;;0.50;99.95;98694.94;1649829;87;21174;-64
2021/01/13 02:06:00;;;;;;;48.25;26.07;;;;;;;0.52;100.00;98690.42;1648221;84;20307;-66
2021/01/13 02:08:26;;;;;;;51.48;27.00;;;;;;;0.49;100.00;98694.09;1645998;87;21700;-63
2021/01/13 02:10:52;;;;;;;51.17;27.97;;;;;;;0.49;100.00;98695.88;1645697;87;22321;-64
2021/01/13 02:13:19;;;;;;;50.25;26.40;;;;;;;0.52;100.00;98698.22;1645999;87;21354;-64
2021/01/13 02:15:49;;;;;;;49.00;26.40;;;;;;;0.47;100.00;98698.59;1647097;86;21234;-64
2021/01/13 02:18:18;;;;;;;47.13;25.95;;;;;;;0.49;100.00;98698.47;1647128;87;21257;-64
2021/01/13 02:20:47;;;;;;;52.73;27.40;;;;;;;0.47;100.00;98699.90;1646713;86;21230;-66
2021/01/13 02:23:29;;;;;;;51.13;27.20;;;;;;;0.49;100.00;98686.30;1646661;85;21214;-65
2021/01/13 02:26:37;;;;;;;51.92;28.17;;;;;;;0.53;100.00;98690.30;1645203;87;22241;-64
2021/01/13 02:29:14;;;;;;;51.53;28.12;;;;;;;0.48;100.00;98684.67;1640467;87;21187;-64
2021/01/13 02:31:54;;;;;;;50.43;26.10;;;;;;;0.47;100.00;98687.40;1647253;85;21238;-64
2021/01/13 02:34:35;;;;;;;50.00;27.35;;;;;;;0.49;100.00;98698.47;1647105;86;21134;-65
2021/01/13 02:37:21;;;;;;;54.73;28.62;;;;;;;0.40;100.00;98692.74;1647143;87;21202;-65
2021/01/13 02:39:46;;;;;;;47.90;26.57;;;;;;;0.40;100.00;98691.45;1647659;87;21521;-64
2021/01/13 02:42:26;;;;;;;51.00;28.60;;;;;;;0.42;100.00;98689.53;1648516;85;20979;-63
2021/01/13 02:45:06;;;;;;;52.53;28.07;;;;;;;0.50;100.00;98688.44;1647500;86;21189;-65
2021/01/13 02:47:46;;;;;;;48.68;25.92;;;;;;;0.50;100.00;98698.34;1642878;85;21206;-63
2021/01/13 02:50:22;;;;;;;48.92;25.45;;;;;;;0.44;100.00;98695.45;1589816;86;21637;-64
2021/01/13 02:53:17;;;;;;;48.60;27.15;;;;;;;0.39;100.00;98711.86;1651177;86;21296;-64
2021/01/13 02:56:05;;;;;;;54.95;28.92;;;;;;;0.38;100.00;98715.42;1629631;86;21259;-65
2021/01/13 02:58:36;;;;;;;45.28;24.23;;;;;;;0.48;100.00;98704.61;1651270;86;21172;-65
2021/01/13 03:01:05;;;;;;;45.52;24.70;;;;;;;0.46;100.00;98719.50;1651446;86;21263;-64
2021/01/13 03:03:32;;;;;;;44.27;24.82;;;;;;;0.38;100.00;98743.99;1651450;86;21260;-64
2021/01/13 03:06:08;;;;;;;42.58;22.45;;;;;;;0.43;100.00;98723.66;1650556;86;21666;-65
2021/01/13 03:09:04;;;;;;;42.62;23.52;;;;;;;0.39;100.00;98719.65;1648548;86;21434;-64
2021/01/13 03:11:30;;;;;;;32.33;17.93;;;;;;;0.39;100.00;98723.55;1651143;86;21598;-63
2021/01/13 03:13:57;;;;;;;33.87;18.87;;;;;;;0.37;100.00;98751.42;1649889;86;22965;-64
2021/01/13 03:16:23;;;;;;;33.75;17.87;;;;;;;0.34;100.00;98733.02;1637686;86;21239;-63
2021/01/13 03:18:57;;;;;;;32.07;18.33;;;;;;;0.37;100.00;98764.41;1650835;86;21754;-64
2021/01/13 03:21:32;;;;;;;34.53;18.77;;;;;;;0.39;100.00;98739.12;1650976;86;21234;-63
2021/01/13 03:24:21;;;;;;;35.15;19.73;;;;;;;0.35;100.00;98728.98;1651798;84;21274;-64
2021/01/13 03:26:47;;;;;;;30.77;18.30;;;;;;;0.42;100.00;98732.38;1651011;86;21223;-63
2021/01/13 03:29:20;;;;;;;30.57;18.40;;;;;;;0.41;100.00;98726.38;1637383;86;21254;-65
2021/01/13 03:32:13;;;;;;;28.67;16.20;;;;;;;0.39;100.00;98765.09;1651044;86;21219;-64
2021/01/13 03:35:11;;;;;;;28.60;16.10;;;;;;;0.37;100.00;98743.63;1649431;86;21223;-64
2021/01/13 03:37:57;;;;;;;28.38;15.20;;;;;;;0.28;100.00;98756.42;1649364;86;21243;-64
2021/01/13 03:40:26;;;;;;;24.45;13.50;;;;;;;0.20;100.00;98766.59;1651431;86;21263;-63
2021/01/13 03:42:54;;;;;;;22.20;13.08;;;;;;;0.04;100.00;98764.41;1651163;86;21212;-64
2021/01/13 03:45:36;;;;;;;22.15;13.25;;;;;;;0.09;100.00;98747.17;1651524;85;21915;-64
2021/01/13 03:48:30;;;;;;;24.02;12.20;;;;;;;0.05;100.00;98780.80;1651223;86;21232;-64
2021/01/13 03:50:56;;;;;;;21.45;12.05;;;;;;;-0.10;100.00;98786.27;1647475;86;21568;-64
2021/01/13 03:53:21;;;;;;;21.47;12.50;;;;;;;0.28;100.00;98762.08;1643246;86;22909;-64
2021/01/13 03:55:47;;;;;;;18.47;10.77;;;;;;;0.20;100.00;98757.98;1647309;86;21116;-64
2021/01/13 03:58:49;;;;;;;19.10;11.30;;;;;;;0.04;100.00;98759.22;1647683;86;21462;-64
2021/01/13 04:01:29;;;;;;;18.40;9.85;;;;;;;0.03;100.00;98768.43;1647418;86;21624;-65
2021/01/13 04:04:18;;;;;;;20.65;10.50;;;;;;;-0.05;100.00;98778.97;1647421;87;21264;-64
2021/01/13 04:06:45;;;;;;;22.50;9.93;;;;;;;-0.05;100.00;98778.97;1646885;87;21249;-65
2021/01/13 04:09:14;;;;;;;20.08;10.63;;;;;;;-0.04;99.54;98783.20;1646974;87;21154;-64
2021/01/13 04:11:40;;;;;;;16.37;9.28;;;;;;;-0.01;99.39;98794.63;1647497;85;21241;-64
2021/01/13 04:14:05;;;;;;;14.07;8.30;;;;;;;0.04;98.58;98792.15;1665326;85;21102;-64
2021/01/13 04:16:38;;;;;;;15.00;8.00;;;;;;;-0.02;97.98;98791.70;1641195;86;21658;-64
2021/01/13 04:19:05;;;;;;;28.15;8.63;;;;;;;0.03;96.86;98819.03;1647679;87;21572;-63
2021/01/13 04:21:32;;;;;;;13.72;7.10;;;;;;;0.03;96.86;98819.03;1647243;87;21247;-65
2021/01/13 04:23:59;;;;;;;16.30;7.95;;;;;;;-0.06;96.43;98817.53;1647918;85;21221;-64
2021/01/13 04:26:25;;;;;;;18.95;8.40;;;;;;;0.01;96.40;98820.45;1647195;87;21229;-64
2021/01/13 04:28:51;;;;;;;13.77;6.90;;;;;;;-0.05;96.37;98804.08;1647112;86;21087;-64
2021/01/13 04:31:18;;;;;;;13.55;6.75;;;;;;;-0.05;96.10;98811.86;1647689;87;21614;-64
2021/01/13 04:33:44;;;;;;;16.10;7.95;;;;;;;0.07;96.11;98813.97;1647233;87;21201;-65
2021/01/13 04:36:12;;;;;;;15.60;8.38;;;;;;;-0.07;95.40;98830.14;1647218;87;21619;-64
2021/01/13 04:38:38;;;;;;;16.75;8.20;;;;;;;-0.07;95.40;98830.14;1647542;87;21495;-64
2021/01/13 04:41:17;;;;;;;18.02;9.68;;;;;;;-0.11;96.12;98831.35;1648377;85;21500;-64
2021/01/13 04:44:02;;;;;;;20.77;9.80;;;;;;;-0.03;96.12;98805.61;1647125;85;22073;-65
2021/01/13 04:46:38;;;;;;;14.25;8.43;;;;;;;-0.03;96.12;98805.61;1645624;85;21263;-65
2021/01/13 04:49:11;;;;;;;17.33;9.03;;;;;;;-0.01;96.09;98819.28;1645962;87;21258;-65
2021/01/13 04:51:42;;;;;;;13.48;7.97;;;;;;;-0.11;95.56;98823.56;1644014;86;22383;-65
2021/01/13 04:54:12;;;;;;;17.50;8.88;;;;;;;-0.17;94.83;98827.09;1643011;85;21234;-65
2021/01/13 04:56:59;;;;;;;17.30;9.20;;;;;;;-0.19;95.35;98838.89;1641685;87;21771;-66
2021/01/13 04:59:57;;;;;;;20.12;8.10;;;;;;;-0.19;95.50;98844.08;1668777;85;21228;-65
2021/01/13 05:03:12;;;;;;;12.93;7.10;;;;;;;-0.20;94.96;98872.28;1642000;87;21993;-65
2021/01/13 05:05:58;;;;;;;10.63;6.58;;;;;;;-0.11;93.61;98844.33;1641131;87;21187;-65
2021/01/13 05:08:27;;;;;;;10.87;5.83;;;;;;;-0.11;93.61;98844.33;1639942;87;21198;-64
2021/01/13 05:11:10;;;;;;;14.15;6.22;;;;;;;-0.22;92.79;98850.80;1641215;87;21940;-65
2021/01/13 05:13:38;;;;;;;10.82;5.65;;;;;;;-0.22;92.44;98857.29;1640029;87;21233;-65
2021/01/13 05:16:10;;;;;;;7.97;4.95;;;;;;;-0.32;92.46;98883.13;1641036;87;21251;-64
2021/01/13 05:18:56;;;;;;;8.78;5.12;;;;;;;-0.31;91.80;98863.19;1639337;87;21644;-64
2021/01/13 05:21:25;;;;;;;7.33;4.30;;;;;;;-0.31;91.51;98870.97;1642412;85;21311;-65
2021/01/13 05:23:56;;;;;;;6.08;4.37;;;;;;;-0.34;90.39;98887.62;1642074;85;21249;-65
2021/01/13 05:26:26;;;;;;;7.87;4.12;;;;;;;-0.39;90.16;98906.13;1642748;86;21568;-64
2021/01/13 05:29:28;;;;;;;8.75;4.03;;;;;;;-0.30;89.93;98906.35;1640656;87;21492;-65
2021/01/13 05:31:54;;;;;;;9.30;4.67;;;;;;;-0.37;89.79;98906.82;1642794;85;21616;-65
2021/01/13 05:34:20;;;;;;;8.05;5.28;;;;;;;-0.33;89.91;98891.84;1642391;87;21155;-64
2021/01/13 05:37:19;;;;;;;10.80;5.97;;;;;;;-0.22;90.79;98898.80;1641893;87;21639;-65
2021/01/13 05:39:47;;;;;;;11.55;6.83;;;;;;;-0.27;91.70;98903.52;1642202;87;21262;-65
2021/01/13 05:42:15;;;;;;;14.28;7.55;;;;;;;-0.34;91.68;98899.73;1643152;84;22168;-65
2021/01/13 05:44:42;;;;;;;15.43;6.85;;;;;;;-0.44;91.94;98909.52;1642241;87;21206;-66
2021/01/13 05:47:16;;;;;;;17.30;8.65;;;;;;;-0.38;91.79;98924.61;1642586;87;21242;-64
2021/01/13 05:49:42;;;;;;;16.42;7.90;;;;;;;-0.41;92.26;98917.06;1640700;87;22360;-65
2021/01/13 05:52:09;;;;;;;15.97;8.07;;;;;;;-0.31;91.98;98909.88;1617773;87;21054;-64
2021/01/13 05:54:37;;;;;;;19.42;8.00;;;;;;;-0.38;91.99;98914.23;1641991;86;21716;-65
2021/01/13 05:57:03;;;;;;;;;;;;;;;-0.41;91.29;98920.95;1644744;87;21647;-65
2021/01/13 05:59:30;;;;;;;15.78;8.20;;;;;;;-0.49;91.13;98918.13;1642187;87;20257;-65
2021/01/13 06:01:59;;;;;;;20.15;8.68;;;;;;;-0.62;91.12;98897.95;1642593;85;21200;-65
2021/01/13 06:04:25;;;;;;;19.23;8.38;;;;;;;-0.46;91.15;98933.45;1642389;87;21249;-65
2021/01/13 06:07:12;;;;;;;16.02;8.08;;;;;;;-0.49;90.98;98928.50;1642504;87;21703;-65
2021/01/13 06:09:42;;;;;;;14.80;7.78;;;;;;;-0.51;90.41;98944.66;1641853;87;21673;-64
2021/01/13 06:12:17;;;;;;;18.35;7.80;;;;;;;-0.54;90.14;98959.14;1642469;87;21824;-64
2021/01/13 06:14:43;;;;;;;14.53;7.08;;;;;;;-0.49;90.11;98947.13;1641493;87;21258;-65
2021/01/13 06:17:24;;;;;;;16.77;7.53;;;;;;;-0.66;89.84;98944.50;1617947;87;21687;-65
2021/01/13 06:19:52;;;;;;;14.45;6.58;;;;;;;-0.62;89.80;98962.31;1642332;87;21586;-66
2021/01/13 06:22:19;;;;;;;12.15;6.90;;;;;;;-0.69;89.93;98949.92;1640360;87;21167;-66
2021/01/13 06:24:48;;;;;;;13.75;6.92;;;;;;;-0.63;89.58;98961.12;1618454;87;22373;-66
2021/01/13 06:27:22;;;;;;;15.58;6.85;;;;;;;-0.69;89.72;98957.69;1642712;87;21179;-65
2021/01/13 06:29:51;;;;;;;13.13;6.20;;;;;;;-0.73;90.16;98963.55;1642259;87;21565;-64
2021/01/13 06:32:27;;;;;;;12.95;7.10;;;;;;;-0.77;89.22;98964.27;1642748;87;21238;-64
2021/01/13 06:35:03;;;;;;;11.53;6.10;;;;;;;-0.75;89.70;98970.15;1641004;86;21254;-65
2021/01/13 06:37:48;;;;;;;15.75;6.30;;;;;;;-0.80;89.15;98964.48;1624757;87;21401;-65
2021/01/13 06:40:17;;;;;;;12.18;6.53;;;;;;;-0.76;88.61;98977.59;1617182;87;21779;-65
2021/01/13 06:42:43;;;;;;;11.28;5.17;;;;;;;-0.74;88.43;98970.99;1642098;87;21214;-63
2021/01/13 06:45:09;;;;;;;10.70;4.97;;;;;;;-0.80;87.21;98986.52;1641921;86;22526;-65
2021/01/13 06:47:36;;;;;;;13.13;4.70;;;;;;;-0.75;87.17;98979.70;1642247;87;21257;-64
2021/01/13 06:50:03;;;;;;;8.18;4.83;;;;;;;-0.67;86.84;98983.84;1642119;87;21541;-64
2021/01/13 06:52:32;;;;;;;7.28;4.20;;;;;;;-0.70;86.75;98982.77;1648357;86;21251;-67
2021/01/13 06:55:01;;;;;;;8.60;4.50;;;;;;;-0.60;86.41;98985.53;1652082;85;21188;-65
2021/01/13 06:57:30;;;;;;;12.82;5.35;;;;;;;-0.50;86.11;98985.18;1650191;85;21434;-65
2021/01/13 06:59:58;;;;;;;8.45;4.78;;;;;;;-0.52;86.05;98987.08;1649408;85;21743;-64
2021/01/13 07:02:33;;;;;;;8.33;4.60;;;;;;;-0.40;85.94;98995.23;1648941;85;21251;-66
2021/01/13 07:04:58;;;;;;;10.20;5.08;;;;;;;-0.40;86.19;99009.50;1649418;85;21276;-65
2021/01/13 07:07:24;;;;;;;9.20;5.20;;;;;;;-0.45;86.64;99005.14;1648583;85;21053;-65
2021/01/13 07:09:51;;;;;;;12.07;5.90;;;;;;;-0.39;86.59;99011.16;1647945;85;21697;-65
2021/01/13 07:12:24;;;;;;;9.80;4.85;;;;;;;-0.28;86.77;99027.67;1651198;85;21211;-66
2021/01/13 07:14:52;;;;;;;12.70;5.12;;;;;;;-0.28;86.77;99027.67;1650100;85;21719;-66
2021/01/13 07:17:23;;;;;;;13.08;4.83;;;;;;;-0.20;86.52;99029.25;1648820;85;21279;-65
2021/01/13 07:19:54;;;;;;;12.95;5.75;;;;;;;-0.14;86.58;99031.83;1649989;85;21232;-66
2021/01/13 07:22:24;;;;;;;11.97;5.83;;;;;;;-0.11;86.61;99035.05;1648253;85;21218;-66
2021/01/13 07:24:50;;;;;;;10.32;5.45;;;;;;;-0.12;86.24;99039.86;1649470;85;21188;-65
2021/01/13 07:27:16;;;;;;;13.30;5.83;;;;;;;0.10;85.21;99014.88;1647220;85;21537;-65
2021/01/13 07:29:42;;;;;;;11.28;5.92;;;;;;;0.10;85.21;99014.88;1650467;85;21932;-65
2021/01/13 07:32:10;;;;;;;10.70;5.87;;;;;;;0.15;85.30;99030.92;1651098;85;21750;-66
2021/01/13 07:34:38;;;;;;;17.25;6.42;;;;;;;0.14;85.58;99033.16;1650907;85;21242;-68
2021/01/13 07:37:08;;;;;;;10.55;5.50;;;;;;;-0.03;85.87;99037.06;1651401;85;21247;-68
2021/01/13 07:40:00;;;;;;;13.48;5.72;;;;;;;-0.03;85.87;99037.06;1651030;85;21223;-67
2021/01/13 07:42:43;;;;;;;12.50;6.15;;;;;;;0.13;85.84;99038.83;1641501;86;21219;-67
2021/01/13 07:45:19;;;;;;;11.18;5.85;;;;;;;0.22;85.96;99041.20;1652153;85;21610;-67
2021/01/13 07:48:12;;;;;;;18.20;5.87;;;;;;;0.21;85.18;99056.41;1652063;85;21597;-67
2021/01/13 07:50:44;;;;;;;11.33;5.83;;;;;;;0.14;85.28;99063.00;1649812;85;21206;-66
2021/01/13 07:53:23;;;;;;;13.65;6.62;;;;;;;0.17;85.63;99060.17;1650588;85;21654;-67
2021/01/13 07:55:59;;;;;;;15.10;6.58;;;;;;;0.17;86.08;99058.88;1650908;86;21234;-67
2021/01/13 07:58:33;;;;;;;15.68;7.17;;;;;;;0.19;86.32;99064.80;1651014;86;21645;-67
2021/01/13 08:01:13;;;;;;;20.60;7.90;;;;;;;0.16;86.75;99061.14;1651509;86;21657;-66
2021/01/13 08:04:07;;;;;;;14.15;7.15;;;;;;;0.09;86.94;99062.53;1651327;86;21207;-68
2021/01/13 08:06:47;;;;;;;14.60;8.08;;;;;;;0.01;87.17;99057.92;1651022;86;21175;-67
2021/01/13 08:09:18;;;;;;;19.15;9.03;;;;;;;0.01;87.17;99057.92;1651718;86;22039;-67
2021/01/13 08:12:01;;;;;;;18.87;7.95;;;;;;;-0.06;88.07;99060.64;1651828;86;21219;-66
2021/01/13 08:15:07;;;;;;;17.57;9.23;;;;;;;-0.22;88.54;99060.50;1621740;87;22096;-69
2021/01/13 08:18:09;;;;;;;26.62;10.53;;;;;;;-0.19;89.20;99051.63;1645486;86;21652;-65
2021/01/13 08:21:06;;;;;;;23.98;10.93;;;;;;;-0.25;89.36;99048.20;1643535;86;21231;-66
2021/01/13 08:23:37;;;;;;;23.07;10.45;;;;;;;-0.31;90.18;99056.44;1651021;86;21244;-65
2021/01/13 08:26:02;;;;;;;22.00;11.10;;;;;;;-0.24;89.90;99061.54;1650983;86;21263;-65
2021/01/13 08:28:39;;;;;;;19.45;10.88;;;;;;;-0.28;90.16;99047.98;1651499;85;21637;-66
2021/01/13 08:31:06;;;;;;;27.50;11.70;;;;;;;-0.04;89.79;99066.05;1649905;85;21399;-66
2021/01/13 08:33:40;;;;;;;25.77;12.37;;;;;;;0.01;89.74;99066.19;1651715;86;21140;-65
2021/01/13 08:36:13;;;;;;;22.00;12.20;;;;;;;0.07;89.53;99074.81;1651146;85;21187;-65
2021/01/13 08:39:07;;;;;;;24.05;13.45;;;;;;;0.11;89.24;99071.02;1651888;86;21573;-66
2021/01/13 08:41:33;;;;;;;24.80;12.82;;;;;;;0.16;89.12;99065.03;1630933;86;22343;-66
2021/01/13 08:44:15;;;;;;;25.27;13.88;;;;;;;0.20;88.92;99062.54;1651354;85;21139;-66
2021/01/13 08:46:49;;;;;;;27.32;13.20;;;;;;;0.23;89.20;99073.98;1652004;85;21192;-65
2021/01/13 08:49:26;;;;;;;32.00;14.05;;;;;;;0.27;89.30;99079.31;1637130;86;21613;-66
2021/01/13 08:52:19;;;;;;;32.23;15.20;;;;;;;0.30;89.09;99077.78;1649412;85;21316;-66
2021/01/13 08:54:49;;;;;;;29.87;15.18;;;;;;;0.35;89.39;99079.55;1651813;85;21960;-65
2021/01/13 08:57:16;;;;;;;31.52;16.07;;;;;;;0.33;89.47;99066.34;1637073;86;21246;-64
2021/01/13 08:59:44;;;;;;;36.25;15.50;;;;;;;0.35;89.77;99086.04;1647694;86;21186;-66
2021/01/13 09:02:12;;;;;;;;;;;;;;;0.30;90.25;99091.25;1650472;86;21258;-65
2021/01/13 09:04:58;;;;;;;34.30;16.67;;;;;;;0.35;90.42;99092.53;1647137;87;20260;-66
2021/01/13 09:07:30;;;;;;;36.83;17.12;;;;;;;0.39;90.69;99091.00;1649151;85;21345;-65
2021/01/13 09:10:05;;;;;;;31.40;16.73;;;;;;;0.19;91.61;99094.66;1648713;85;21225;-65
2021/01/13 09:12:37;;;;;;;34.78;18.45;;;;;;;0.18;91.99;99094.30;1647664;85;21147;-64
2021/01/13 09:15:14;;;;;;;41.68;20.20;;;;;;;0.18;92.86;99090.40;1646749;85;21308;-67
2021/01/13 09:17:54;;;;;;;37.57;18.57;;;;;;;0.10;93.42;99095.34;1647190;85;21195;-65
2021/01/13 09:20:31;;;;;;;40.43;19.92;;;;;;;0.14;93.69;99094.16;1647382;85;21246;-64
2021/01/13 09:23:04;;;;;;;37.30;18.00;;;;;;;0.16;93.77;99101.37;1646318;85;21155;-64
2021/01/13 09:25:40;;;;;;;42.00;21.55;;;;;;;0.16;94.04;99105.27;1646069;85;21175;-63
2021/01/13 09:28:18;;;;;;;37.93;18.50;;;;;;;0.18;94.29;99107.27;1642485;85;21230;-66
2021/01/13 09:30:44;;;;;;;36.08;18.75;;;;;;;0.23;94.00;99098.66;1645655;85;21281;-65
2021/01/13 09:33:19;;;;;;;45.57;21.73;;;;;;;0.33;93.68;99102.22;1665102;84;21559;-65
2021/01/13 09:35:47;;;;;;;42.00;20.40;;;;;;;0.34;94.05;99101.28;1646928;85;21245;-65
2021/01/13 09:38:16;;;;;;;39.23;21.07;;;;;;;0.28;93.94;99100.91;1620018;85;21290;-65
2021/01/13 09:41:03;;;;;;;41.37;19.95;;;;;;;0.16;94.30;99081.91;1646183;85;21631;-65
2021/01/13 09:43:44;;;;;;;39.40;18.92;;;;;;;0.15;94.65;99099.23;1645362;85;21150;-65
2021/01/13 09:46:27;;;;;;;44.65;20.92;;;;;;;0.24;94.50;99102.91;1647814;85;22214;-65
2021/01/13 09:49:03;;;;;;;48.87;22.15;;;;;;;0.31;94.56;99101.52;1645635;85;21257;-65
2021/01/13 09:51:30;;;;;;;42.55;20.90;;;;;;;0.30;94.15;99099.85;1614661;87;21240;-64
2021/01/13 09:54:02;;;;;;;28.62;15.20;;;;;;;0.22;94.02;99099.62;1641936;85;21991;-64
2021/01/13 09:56:27;;;;;;;36.75;18.87;;;;;;;0.27;94.36;99113.06;1640335;85;21183;-64
2021/01/13 09:58:53;;;;;;;38.57;20.00;;;;;;;0.33;94.11;99102.70;1641764;85;21285;-64
2021/01/13 10:01:24;;;;;;;37.70;19.42;;;;;;;0.38;93.59;99099.27;1641311;85;21209;-64
2021/01/13 10:03:51;;;;;;;35.90;18.73;;;;;;;0.38;93.36;99103.16;1641475;85;21203;-65
2021/01/13 10:06:20;;;;;;;39.40;19.65;;;;;;;0.38;93.36;99103.16;1641383;85;21209;-65
2021/01/13 10:08:49;;;;;;;37.70;19.25;;;;;;;0.48;93.25;99095.48;1641446;85;21198;-66
2021/01/13 10:11:16;;;;;;;35.15;18.42;;;;;;;0.58;93.12;99099.52;1641597;85;21944;-65
2021/01/13 10:13:43;;;;;;;37.25;17.23;;;;;;;0.38;92.98;99099.27;1644990;85;21259;-66
2021/01/13 10:16:11;;;;;;;32.93;17.27;;;;;;;0.55;92.80;99096.69;1641576;85;21234;-65
2021/01/13 10:18:58;;;;;;;36.00;16.95;;;;;;;0.44;92.66;99097.98;1641860;85;21159;-64
2021/01/13 10:21:25;;;;;;;31.60;15.30;;;;;;;0.58;92.02;99102.94;1639539;85;21242;-64
2021/01/13 10:23:51;;;;;;;32.43;16.93;;;;;;;0.58;92.02;99102.94;1641584;85;21648;-65
2021/01/13 10:26:18;;;;;;;34.67;16.87;;;;;;;0.66;91.51;99114.86;1640791;85;21230;-64
2021/01/13 10:28:45;;;;;;;36.77;17.42;;;;;;;0.79;90.79;99106.11;1642728;85;21246;-64
2021/01/13 10:31:15;;;;;;;33.33;15.55;;;;;;;0.67;90.54;99109.20;1641629;85;21251;-64
2021/01/13 10:33:49;;;;;;;27.37;14.95;;;;;;;0.64;90.35;99112.86;1639278;85;21206;-66
2021/01/13 10:36:40;;;;;;;28.47;14.73;;;;;;;0.64;89.41;99108.96;1641143;85;21675;-65
2021/01/13 10:39:17;;;;;;;29.45;13.80;;;;;;;0.53;89.25;99099.88;1641886;85;21226;-65
2021/01/13 10:41:51;;;;;;;26.93;13.25;;;;;;;0.53;88.51;99099.88;1643245;85;21198;-65
2021/01/13 10:44:23;;;;;;;25.57;13.13;;;;;;;0.61;87.67;99109.68;1640469;85;21686;-65
2021/01/13 10:47:06;;;;;;;27.13;12.58;;;;;;;0.56;87.41;99125.63;1641632;85;21190;-65
2021/01/13 10:49:41;;;;;;;20.17;11.20;;;;;;;0.55;87.13;99117.46;1641931;85;21221;-65
2021/01/13 10:52:20;;;;;;;20.60;11.18;;;;;;;0.57;87.12;99108.25;1641585;85;21237;-66
2021/01/13 10:54:54;;;;;;;24.90;11.08;;;;;;;0.56;87.43;99120.42;1611372;87;21495;-65
2021/01/13 10:57:30;;;;;;;28.00;11.80;;;;;;;0.57;87.27;99125.14;1612506;87;21257;-65
2021/01/13 11:00:11;;;;;;;27.67;10.90;;;;;;;0.58;87.66;99130.22;1612917;87;21223;-64
2021/01/13 11:02:37;;;;;;;21.48;10.58;;;;;;;0.65;87.61;99130.11;1612453;87;21249;-65
2021/01/13 11:05:05;;;;;;;26.50;11.78;;;;;;;0.70;87.86;99116.28;1612407;87;21699;-66
2021/01/13 11:07:36;;;;;;;;;;;;;;;0.65;87.75;99111.92;1614324;87;21120;-66
2021/01/13 11:10:02;;;;;;;25.50;11.63;;;;;;;0.66;87.70;99114.86;1611287;87;20572;-66
2021/01/13 11:12:29;;;;;;;27.15;11.30;;;;;;;0.77;87.56;99118.41;1612156;87;21251;-66
2021/01/13 11:14:55;;;;;;;21.70;10.80;;;;;;;0.62;87.77;99117.36;1614048;87;21597;-65
2021/01/13 11:17:27;;;;;;;25.32;11.90;;;;;;;0.88;87.81;99113.19;1614263;87;21243;-65
2021/01/13 11:19:55;;;;;;;26.00;12.35;;;;;;;0.88;87.81;99113.19;1611200;87;21219;-65
2021/01/13 11:22:57;;;;;;;26.23;11.35;;;;;;;1.04;87.21;99106.30;1612518;87;21242;-64
2021/01/13 11:25:01;;;;;;;29.95;12.78;;;;;;;1.04;87.21;99106.30;1602449;87;21476;-67
2021/01/13 11:27:27;;;;;;;31.30;12.90;;;;;;;0.83;87.96;99117.94;1574250;88;22459;-66
2021/01/13 11:29:54;;;;;;;26.37;13.60;;;;;;;0.81;88.27;99114.60;1611605;87;20987;-65
2021/01/13 11:32:25;;;;;;;27.58;13.38;;;;;;;0.79;88.92;99120.41;1612707;87;21186;-66
2021/01/13 11:34:54;;;;;;;24.37;11.63;;;;;;;0.83;88.60;99121.83;1614192;87;21255;-65
2021/01/13 11:37:46;;;;;;;28.05;12.23;;;;;;;0.86;89.05;99111.20;1612598;87;21202;-66
2021/01/13 11:40:32;;;;;;;26.97;12.35;;;;;;;0.96;88.84;99112.59;1612785;87;21204;-67
2021/01/13 11:43:15;;;;;;;28.47;13.53;;;;;;;0.78;89.14;99117.44;1612245;87;21277;-66
2021/01/13 11:46:12;;;;;;;30.77;14.87;;;;;;;0.85;89.43;99106.94;1612307;87;21785;-66
2021/01/13 11:48:56;;;;;;;33.38;14.07;;;;;;;0.81;89.64;99101.61;1612185;87;21238;-64
2021/01/13 11:51:22;;;;;;;27.85;13.13;;;;;;;0.94;89.07;99098.90;1599520;87;21668;-64
2021/01/13 11:53:48;;;;;;;28.60;13.90;;;;;;;0.97;89.29;99099.96;1609966;87;21650;-64
2021/01/13 11:56:13;;;;;;;30.47;13.30;;;;;;;0.96;88.85;99100.41;1647029;85;20925;-64